createdAt,value
2018-12-22T00:00:20.310Z,114.20
2018-12-22T00:02:47.830Z,111.50
2018-12-22T00:05:15.361Z,105.63
2018-12-22T00:07:43.168Z,104.03
2018-12-22T00:10:10.684Z,99.00
2018-12-22T00:12:38.470Z,110.03
2018-12-22T00:15:06.183Z,103.43
2018-12-22T00:17:33.705Z,95.30
2018-12-22T00:20:01.249Z,94.30
2018-12-22T00:22:29.124Z,96.80
2018-12-22T00:24:56.654Z,92.87
2018-12-22T00:27:24.534Z,100.20
2018-12-22T00:29:52.051Z,91.63
2018-12-22T00:32:19.565Z,92.97
2018-12-22T00:34:49.484Z,103.37
2018-12-22T00:37:17.025Z,101.17
2018-12-22T00:39:44.912Z,101.97
2018-12-22T00:42:12.436Z,98.87
2018-12-22T00:44:39.996Z,101.37
2018-12-22T00:47:07.511Z,121.77
2018-12-22T00:49:35.461Z,101.23
2018-12-22T00:52:02.988Z,94.77
2018-12-22T00:54:30.503Z,96.43
2018-12-22T00:56:58.053Z,89.50
2018-12-22T00:59:25.569Z,89.57
2018-12-22T01:01:53.434Z,93.60
2018-12-22T01:04:20.953Z,88.97
2018-12-22T01:06:48.794Z,92.13
2018-12-22T01:09:16.449Z,88.63
2018-12-22T01:11:44.212Z,92.43
2018-12-22T01:14:11.719Z,91.57
2018-12-22T01:16:39.538Z,89.60
2018-12-22T01:19:07.062Z,96.63
2018-12-22T01:21:34.834Z,96.77
2018-12-22T01:24:02.359Z,108.60
2018-12-22T01:26:29.880Z,103.83
2018-12-22T01:28:57.424Z,96.80
2018-12-22T01:31:24.931Z,102.87
2018-12-22T01:33:52.519Z,88.20
2018-12-22T01:36:20.034Z,110.73
2018-12-22T01:38:47.640Z,106.10
2018-12-22T01:41:15.153Z,99.23
2018-12-22T01:43:42.874Z,100.80
2018-12-22T01:46:10.394Z,98.57
2018-12-22T01:48:37.907Z,94.27
2018-12-22T01:51:05.968Z,87.23
2018-12-22T01:53:33.571Z,109.70
2018-12-22T01:56:01.171Z,85.53
2018-12-22T01:58:29.066Z,86.70
2018-12-22T02:00:56.583Z,90.67
2018-12-22T02:03:24.101Z,91.50
2018-12-22T02:05:51.814Z,91.67
2018-12-22T02:08:19.336Z,86.77
2018-12-22T02:10:46.868Z,84.47
2018-12-22T02:13:14.714Z,96.10
2018-12-22T02:15:42.223Z,96.60
2018-12-22T02:18:09.752Z,82.63
2018-12-22T02:20:37.294Z,95.70
2018-12-22T02:23:04.805Z,89.87
2018-12-22T02:25:32.316Z,85.47
2018-12-22T02:30:32.540Z,92.87
2018-12-22T02:33:00.242Z,92.30
2018-12-22T02:35:27.767Z,86.03
2018-12-22T02:40:34.059Z,87.23
2018-12-22T02:43:01.600Z,80.80
2018-12-22T02:45:29.116Z,83.67
2018-12-22T02:47:56.667Z,80.10
2018-12-22T02:50:24.495Z,90.53
2018-12-22T02:52:52.012Z,85.67
2018-12-22T02:55:19.748Z,96.23
2018-12-22T02:57:47.279Z,98.10
2018-12-22T03:00:14.960Z,95.77
2018-12-22T03:02:42.583Z,87.80
2018-12-22T03:05:10.449Z,92.67
2018-12-22T03:07:38.088Z,87.13
2018-12-22T03:10:05.851Z,92.50
2018-12-22T03:12:33.540Z,83.70
2018-12-22T03:15:01.067Z,89.03
2018-12-22T03:17:28.964Z,83.53
2018-12-22T03:19:56.477Z,83.97
2018-12-22T03:22:24.280Z,97.07
2018-12-22T03:24:51.795Z,86.33
2018-12-22T03:27:19.378Z,78.03
2018-12-22T03:29:47.268Z,81.83
2018-12-22T03:32:14.917Z,80.03
2018-12-22T03:34:42.445Z,74.90
2018-12-22T03:37:10.262Z,76.00
2018-12-22T03:39:37.766Z,76.00
2018-12-22T03:42:05.393Z,79.70
2018-12-22T03:44:33.088Z,80.17
2018-12-22T03:47:00.607Z,70.87
2018-12-22T03:49:28.127Z,79.00
2018-12-22T03:51:55.786Z,81.33
2018-12-22T03:54:23.304Z,77.07
2018-12-22T03:56:50.829Z,78.17
2018-12-22T03:59:24.694Z,79.10
2018-12-22T04:01:48.161Z,75.90
2018-12-22T04:04:15.738Z,77.73
2018-12-22T04:06:43.280Z,79.93
2018-12-22T04:09:10.795Z,77.87
2018-12-22T04:11:38.326Z,82.63
2018-12-22T04:14:06.222Z,77.83
2018-12-22T04:16:33.753Z,71.57
2018-12-22T04:19:01.278Z,71.63
2018-12-22T04:21:29.069Z,71.33
2018-12-22T04:23:56.590Z,71.20
2018-12-22T04:26:24.122Z,76.80
2018-12-22T04:28:51.960Z,68.63
2018-12-22T04:31:19.490Z,70.13
2018-12-22T04:33:47.338Z,68.83
2018-12-22T04:36:14.959Z,68.60
2018-12-22T04:38:42.491Z,69.60
2018-12-22T04:41:10.260Z,69.27
2018-12-22T04:43:37.898Z,68.03
2018-12-22T04:46:05.443Z,67.10
2018-12-22T04:48:33.015Z,63.73
2018-12-22T04:51:00.529Z,62.00
2018-12-22T04:53:28.063Z,64.87
2018-12-22T04:55:55.906Z,64.23
2018-12-22T04:58:23.416Z,60.50
2018-12-22T05:00:50.930Z,64.20
2018-12-22T05:03:18.947Z,64.90
2018-12-22T05:05:46.454Z,66.37
2018-12-22T05:08:13.999Z,67.10
2018-12-22T05:10:41.876Z,65.47
2018-12-22T05:13:09.399Z,66.13
2018-12-22T05:15:36.987Z,69.53
2018-12-22T05:18:04.754Z,69.20
2018-12-22T05:20:32.268Z,71.83
2018-12-22T05:22:59.780Z,74.73
2018-12-22T05:25:27.584Z,69.27
2018-12-22T05:27:55.104Z,67.80
2018-12-22T05:30:22.643Z,68.43
2018-12-22T05:32:57.194Z,68.97
2018-12-22T05:35:24.821Z,65.80
2018-12-22T05:37:52.365Z,69.07
2018-12-22T05:40:20.237Z,72.70
2018-12-22T05:42:47.740Z,71.83
2018-12-22T05:45:15.611Z,72.43
2018-12-22T05:47:43.130Z,69.83
2018-12-22T05:50:10.692Z,68.30
2018-12-22T05:52:38.211Z,71.03
2018-12-22T05:55:05.721Z,72.97
2018-12-22T05:57:33.587Z,73.80
2018-12-22T06:00:01.108Z,72.83
2018-12-22T06:02:28.646Z,72.93
2018-12-22T06:04:56.686Z,75.50
2018-12-22T06:07:24.210Z,77.37
2018-12-22T06:09:51.724Z,63.83
2018-12-22T06:12:19.457Z,69.77
2018-12-22T06:14:46.996Z,70.03
2018-12-22T06:17:14.504Z,66.77
2018-12-22T06:19:42.222Z,68.93
2018-12-22T06:22:09.737Z,78.47
2018-12-22T06:24:37.264Z,66.10
2018-12-22T06:27:04.899Z,70.43
2018-12-22T06:29:32.481Z,72.47
2018-12-22T06:32:00.053Z,74.83
2018-12-22T06:34:27.611Z,82.37
2018-12-22T06:36:55.236Z,73.70
2018-12-22T06:39:23.174Z,53.23
2018-12-22T06:41:51.067Z,57.37
2018-12-22T06:44:18.571Z,75.20
2018-12-22T06:46:46.185Z,79.10
2018-12-22T06:49:13.815Z,72.63
2018-12-22T06:51:41.348Z,78.70
2018-12-22T06:54:08.904Z,80.20
2018-12-22T06:56:36.747Z,82.53
2018-12-22T06:59:04.294Z,78.30
2018-12-22T07:01:32.186Z,79.20
2018-12-22T07:03:59.709Z,81.97
2018-12-22T07:06:27.326Z,84.90
2018-12-22T07:08:54.880Z,83.10
2018-12-22T07:11:22.430Z,79.97
2018-12-22T07:13:49.943Z,80.00
2018-12-22T07:16:17.454Z,89.27
2018-12-22T07:18:44.975Z,85.13
2018-12-22T07:21:12.482Z,89.23
2018-12-22T07:23:40.410Z,81.90
2018-12-22T07:26:08.056Z,78.80
2018-12-22T07:28:35.891Z,80.73
2018-12-22T07:31:03.456Z,86.90
2018-12-22T07:33:31.138Z,88.87
2018-12-22T07:35:58.654Z,88.93
2018-12-22T07:38:26.454Z,88.90
2018-12-22T07:40:53.971Z,88.27
2018-12-22T07:43:21.576Z,93.83
2018-12-22T07:45:49.347Z,91.90
2018-12-22T07:48:16.878Z,94.57
2018-12-22T07:50:44.427Z,96.97
2018-12-22T07:53:12.009Z,99.03
2018-12-22T07:55:39.707Z,91.10
2018-12-22T07:58:07.221Z,89.17
2018-12-22T08:00:35.264Z,94.40
2018-12-22T08:03:03.323Z,91.63
2018-12-22T08:05:38.421Z,88.83
2018-12-22T08:08:00.586Z,96.20
2018-12-22T08:10:28.145Z,97.47
2018-12-22T08:12:55.679Z,95.43
2018-12-22T08:15:23.194Z,93.47
2018-12-22T08:17:50.990Z,93.43
2018-12-22T08:20:18.515Z,91.63
2018-12-22T08:22:46.098Z,94.73
2018-12-22T08:25:14.068Z,88.60
2018-12-22T08:27:41.592Z,88.27
2018-12-22T08:30:09.428Z,90.90
2018-12-22T08:32:37.281Z,90.53
2018-12-22T08:35:04.843Z,86.80
2018-12-22T08:37:32.363Z,93.93
2018-12-22T08:40:00.281Z,92.23
2018-12-22T08:42:27.931Z,92.50
2018-12-22T08:44:55.448Z,95.07
2018-12-22T08:47:23.235Z,95.20
2018-12-22T08:49:50.757Z,93.00
2018-12-22T08:52:18.285Z,97.07
2018-12-22T08:54:46.013Z,98.33
2018-12-22T08:57:14.089Z,99.97
2018-12-22T08:59:41.617Z,99.40
2018-12-22T09:02:09.133Z,100.70
2018-12-22T09:04:36.863Z,98.63
2018-12-22T09:07:04.663Z,103.53
2018-12-22T09:09:32.163Z,105.83
2018-12-22T09:11:59.959Z,102.57
2018-12-22T09:14:27.496Z,101.50
2018-12-22T09:16:55.098Z,102.57
2018-12-22T09:19:22.613Z,103.33
2018-12-22T09:21:50.124Z,107.47
2018-12-22T09:24:17.965Z,110.07
2018-12-22T09:26:45.490Z,108.67
2018-12-22T09:29:13.054Z,109.93
2018-12-22T09:31:40.564Z,112.93
2018-12-22T09:34:13.217Z,112.20
2018-12-22T09:36:37.910Z,112.83
2018-12-22T09:39:07.228Z,111.07
2018-12-22T09:41:34.741Z,114.90
2018-12-22T09:44:02.528Z,119.40
2018-12-22T09:46:30.137Z,111.37
2018-12-22T09:48:57.942Z,118.90
2018-12-22T09:51:25.487Z,115.07
2018-12-22T09:53:53.050Z,121.50
2018-12-22T09:56:20.833Z,123.27
2018-12-22T09:58:48.338Z,122.57
2018-12-22T10:01:16.029Z,125.57
2018-12-22T10:03:43.532Z,123.53
2018-12-22T10:06:11.070Z,125.50
2018-12-22T10:08:38.727Z,123.70
2018-12-22T10:11:06.258Z,127.90
2018-12-22T10:13:33.791Z,125.53
2018-12-22T10:16:01.326Z,129.17
2018-12-22T10:18:29.059Z,129.30
2018-12-22T10:20:56.599Z,131.37
2018-12-22T10:23:24.116Z,134.37
2018-12-22T10:25:51.650Z,129.10
2018-12-22T10:28:19.279Z,130.63
2018-12-22T10:30:47.094Z,130.77
2018-12-22T10:33:15.146Z,126.87
2018-12-22T10:35:42.672Z,129.47
2018-12-22T10:38:10.207Z,126.27
2018-12-22T10:40:37.733Z,116.00
2018-12-22T10:43:05.240Z,138.37
2018-12-22T10:45:33.049Z,132.30
2018-12-22T10:48:00.673Z,137.07
2018-12-22T10:50:28.205Z,135.10
2018-12-22T10:52:55.787Z,129.97
2018-12-22T10:55:23.332Z,128.47
2018-12-22T10:57:50.884Z,136.07
2018-12-22T11:00:18.419Z,130.00
2018-12-22T11:02:46.133Z,132.70
2018-12-22T11:05:13.773Z,138.10
2018-12-22T11:07:41.348Z,136.40
2018-12-22T11:10:12.413Z,137.60
2018-12-22T11:12:40.238Z,137.27
2018-12-22T11:15:08.287Z,134.50
2018-12-22T11:17:36.111Z,136.70
2018-12-22T11:20:06.146Z,136.63
2018-12-22T11:22:34.081Z,134.67
2018-12-22T11:25:02.581Z,137.33
2018-12-22T11:27:30.127Z,134.53
2018-12-22T11:29:57.642Z,130.03
2018-12-22T11:32:25.173Z,134.97
2018-12-22T11:34:52.792Z,132.60
2018-12-22T11:37:20.351Z,132.73
2018-12-22T11:39:47.921Z,133.70
2018-12-22T11:42:15.465Z,138.83
2018-12-22T11:44:43.024Z,137.87
2018-12-22T11:47:12.964Z,131.47
2018-12-22T11:49:40.814Z,137.47
2018-12-22T11:52:08.326Z,136.37
2018-12-22T11:54:36.167Z,131.67
2018-12-22T11:57:03.797Z,134.07
2018-12-22T11:59:31.318Z,132.90
2018-12-22T12:02:14.100Z,134.17
2018-12-22T12:04:42.123Z,137.23
2018-12-22T12:07:09.895Z,135.97
2018-12-22T12:09:37.815Z,136.33
2018-12-22T12:12:05.400Z,141.60
2018-12-22T12:14:32.929Z,136.27
2018-12-22T12:17:02.517Z,136.93
2018-12-22T12:19:30.032Z,138.57
2018-12-22T12:21:57.582Z,139.23
2018-12-22T12:24:25.368Z,142.23
2018-12-22T12:26:52.889Z,133.87
2018-12-22T12:29:20.421Z,131.40
2018-12-22T12:31:52.045Z,130.23
2018-12-22T12:34:17.705Z,135.50
2018-12-22T12:36:45.225Z,131.70
2018-12-22T12:39:12.994Z,133.73
2018-12-22T12:41:40.524Z,128.30
2018-12-22T12:44:08.093Z,132.60
2018-12-22T12:46:35.877Z,124.33
2018-12-22T12:49:03.492Z,125.37
2018-12-22T12:51:31.012Z,737.30
2018-12-22T12:53:58.552Z,313.20
2018-12-22T12:56:26.565Z,264.37
2018-12-22T12:58:54.066Z,209.80
2018-12-22T13:01:22.029Z,183.00
2018-12-22T13:03:49.558Z,164.17
2018-12-22T13:06:17.097Z,143.50
2018-12-22T13:08:44.705Z,138.23
2018-12-22T13:11:12.484Z,128.47
2018-12-22T13:13:43.294Z,127.90
2018-12-22T13:16:10.965Z,124.67
2018-12-22T13:18:38.758Z,129.87
2018-12-22T13:21:08.917Z,133.77
2018-12-22T13:23:36.745Z,123.20
2018-12-22T13:26:04.284Z,189.83
2018-12-22T13:28:31.792Z,139.90
2018-12-22T13:30:59.903Z,135.40
2018-12-22T13:33:28.120Z,136.83
2018-12-22T13:35:55.942Z,141.27
2018-12-22T13:38:24.141Z,142.60
2018-12-22T13:40:51.676Z,137.10
2018-12-22T13:45:57.770Z,142.87
2018-12-22T13:48:25.595Z,141.50
2018-12-22T13:50:53.551Z,146.40
2018-12-22T13:53:21.477Z,143.37
2018-12-22T13:55:49.135Z,140.87
2018-12-22T13:58:16.652Z,144.43
2018-12-22T14:00:44.332Z,146.00
2018-12-22T14:03:11.870Z,151.93
2018-12-22T14:05:39.406Z,157.63
2018-12-22T14:08:07.188Z,158.73
2018-12-22T14:10:34.772Z,160.93
2018-12-22T14:13:02.329Z,159.23
2018-12-22T14:15:30.107Z,165.77
2018-12-22T14:18:18.395Z,165.37
2018-12-22T14:20:46.152Z,170.30
2018-12-22T14:23:13.659Z,167.73
2018-12-22T14:25:41.181Z,171.87
2018-12-22T14:28:09.085Z,179.17
2018-12-22T14:30:36.606Z,166.53
2018-12-22T14:33:04.115Z,166.03
2018-12-22T14:35:34.960Z,163.40
2018-12-22T14:38:02.558Z,170.30
2018-12-22T14:40:30.382Z,166.23
2018-12-22T14:42:57.919Z,161.70
2018-12-22T14:45:25.695Z,171.03
2018-12-22T14:47:54.125Z,159.37
2018-12-22T14:50:21.655Z,161.50
2018-12-22T14:52:49.185Z,173.03
2018-12-22T14:55:17.050Z,154.03
2018-12-22T14:57:49.120Z,156.80
2018-12-22T15:00:17.005Z,169.60
2018-12-22T15:02:44.534Z,169.67
2018-12-22T15:05:12.075Z,163.90
2018-12-22T15:07:39.894Z,158.37
2018-12-22T15:10:09.867Z,162.60
2018-12-22T15:12:37.574Z,162.47
2018-12-22T15:15:12.152Z,166.27
2018-12-22T15:17:43.107Z,172.93
2018-12-22T15:20:14.984Z,170.53
2018-12-22T15:22:42.949Z,168.90
2018-12-22T15:25:10.586Z,169.13
2018-12-22T15:27:38.124Z,163.73
2018-12-22T15:30:10.183Z,169.37
2018-12-22T15:32:44.205Z,176.43
2018-12-22T15:35:09.179Z,177.80
2018-12-22T15:37:37.005Z,171.87
2018-12-22T15:40:07.959Z,177.17
2018-12-22T15:42:35.466Z,180.70
2018-12-22T15:45:05.318Z,180.33
2018-12-22T15:47:33.130Z,187.30
2018-12-22T15:50:00.817Z,185.40
2018-12-22T15:52:28.333Z,239.13
2018-12-22T15:54:56.859Z,197.57
2018-12-22T15:57:24.383Z,195.87
2018-12-22T15:59:52.204Z,195.07
2018-12-22T16:02:19.735Z,196.47
2018-12-22T16:04:47.257Z,210.40
2018-12-22T16:07:15.097Z,270.37
2018-12-22T16:09:42.618Z,227.00
2018-12-22T16:12:10.133Z,198.33
2018-12-22T16:14:37.917Z,201.13
2018-12-22T16:17:05.447Z,202.07
2018-12-22T16:19:33.059Z,204.73
2018-12-22T16:22:00.988Z,189.17
2018-12-22T16:24:28.499Z,197.93
2018-12-22T16:26:56.049Z,195.13
2018-12-22T16:29:24.527Z,198.90
2018-12-22T16:31:52.051Z,193.73
2018-12-22T16:34:19.562Z,199.60
2018-12-22T16:36:47.356Z,197.37
2018-12-22T16:39:14.868Z,205.00
2018-12-22T16:41:42.460Z,204.80
2018-12-22T16:46:44.193Z,185.27
2018-12-22T16:49:12.144Z,183.40
2018-12-22T16:51:39.667Z,194.77
2018-12-22T16:54:07.382Z,207.77
2018-12-22T16:56:35.057Z,200.03
2018-12-22T16:59:02.605Z,191.60
2018-12-22T17:01:34.260Z,193.87
2018-12-22T17:04:02.134Z,197.37
2018-12-22T17:06:30.199Z,193.00
2018-12-22T17:08:57.752Z,211.83
2018-12-22T17:11:25.546Z,200.93
2018-12-22T17:13:53.069Z,206.77
2018-12-22T17:18:59.355Z,214.53
2018-12-22T17:21:26.902Z,259.47
2018-12-22T17:23:57.990Z,244.40
2018-12-22T17:26:28.175Z,236.07
2018-12-22T17:28:56.129Z,195.97
2018-12-22T17:31:23.656Z,209.43
2018-12-22T17:33:51.195Z,211.00
2018-12-22T17:36:18.758Z,209.10
2018-12-22T17:38:46.275Z,211.13
2018-12-22T17:41:13.791Z,220.47
2018-12-22T17:43:41.538Z,199.63
2018-12-22T17:46:09.051Z,202.70
2018-12-22T17:48:36.579Z,198.10
2018-12-22T17:51:04.379Z,203.83
2018-12-22T17:53:31.893Z,200.77
2018-12-22T17:55:59.438Z,202.77
2018-12-22T17:58:27.223Z,200.03
2018-12-22T18:00:54.737Z,203.57
2018-12-22T18:03:27.334Z,201.90
2018-12-22T18:05:51.815Z,204.10
2018-12-22T18:08:19.322Z,208.00
2018-12-22T18:10:46.853Z,224.60
2018-12-22T18:13:14.703Z,221.83
2018-12-22T18:15:42.322Z,213.97
2018-12-22T18:18:09.836Z,217.00
2018-12-22T18:20:37.400Z,204.10
2018-12-22T18:23:04.915Z,217.50
2018-12-22T18:25:32.433Z,225.03
2018-12-22T18:28:00.223Z,215.10
2018-12-22T18:30:27.883Z,221.83
2018-12-22T18:32:55.421Z,219.80
2018-12-22T18:35:23.338Z,231.50
2018-12-22T18:37:50.848Z,247.93
2018-12-22T18:40:21.202Z,247.33
2018-12-22T18:42:49.014Z,262.07
2018-12-22T18:45:16.742Z,254.57
2018-12-22T18:47:44.597Z,263.97
2018-12-22T18:50:21.128Z,276.20
2018-12-22T18:52:48.775Z,293.60
2018-12-22T18:55:16.294Z,272.23
2018-12-22T18:57:46.129Z,270.90
2018-12-22T19:00:19.150Z,265.70
2018-12-22T19:02:46.668Z,301.40
2018-12-22T19:05:15.268Z,262.83
2018-12-22T19:07:42.789Z,280.97
2018-12-22T19:10:20.714Z,294.80
2018-12-22T19:12:48.343Z,267.13
2018-12-22T19:15:15.887Z,281.73
2018-12-22T19:17:43.441Z,287.20
2018-12-22T19:20:18.486Z,308.47
2018-12-22T19:22:46.201Z,282.63
2018-12-22T19:25:13.736Z,295.83
2018-12-22T19:27:41.326Z,303.80
2018-12-22T19:30:09.552Z,294.43
2018-12-22T19:32:37.195Z,298.07
2018-12-22T19:35:05.831Z,297.03
2018-12-22T19:37:33.750Z,299.03
2018-12-22T19:40:01.309Z,299.43
2018-12-22T19:42:28.828Z,305.90
2018-12-22T19:44:56.369Z,299.53
2018-12-22T19:47:23.901Z,305.60
2018-12-22T19:49:51.439Z,295.47
2018-12-22T19:52:19.219Z,294.00
2018-12-22T19:54:46.742Z,294.50
2018-12-22T19:57:14.554Z,291.97
2018-12-22T19:59:42.185Z,296.93
2018-12-22T20:02:10.072Z,293.37
2018-12-22T20:04:37.602Z,290.40
2018-12-22T20:07:05.315Z,294.37
2018-12-22T20:09:32.835Z,300.63
2018-12-22T20:12:00.362Z,300.47
2018-12-22T20:14:28.181Z,293.27
2018-12-22T20:16:55.688Z,304.47
2018-12-22T20:19:23.205Z,310.07
2018-12-22T20:21:50.724Z,321.13
2018-12-22T20:24:18.271Z,322.73
2018-12-22T20:26:45.797Z,325.73
2018-12-22T20:29:13.316Z,325.67
2018-12-22T20:31:40.859Z,335.30
2018-12-22T20:34:11.155Z,333.90
2018-12-22T20:36:38.238Z,330.23
2018-12-22T20:39:06.813Z,339.30
2018-12-22T20:41:34.359Z,315.50
2018-12-22T20:44:01.871Z,299.70
2018-12-22T20:46:29.703Z,300.60
2018-12-22T20:48:57.214Z,270.80
2018-12-22T20:51:25.038Z,304.67
2018-12-22T20:53:52.574Z,296.07
2018-12-22T20:56:20.133Z,304.80
2018-12-22T20:58:47.740Z,289.20
2018-12-22T21:01:19.767Z,250.03
2018-12-22T21:03:47.507Z,282.97
2018-12-22T21:06:16.646Z,279.53
2018-12-22T21:08:44.191Z,285.50
2018-12-22T21:11:11.812Z,271.23
2018-12-22T21:13:39.734Z,260.43
2018-12-22T21:16:07.269Z,287.80
2018-12-22T21:18:34.926Z,268.27
2018-12-22T21:21:02.452Z,271.97
2018-12-22T21:23:30.286Z,266.73
2018-12-22T21:25:57.829Z,276.40
2018-12-22T21:28:25.886Z,275.87
2018-12-22T21:30:53.435Z,268.70
2018-12-22T21:33:20.952Z,275.47
2018-12-22T21:35:53.147Z,286.37
2018-12-22T21:38:18.337Z,309.90
2018-12-22T21:40:45.852Z,284.90
2018-12-22T21:43:13.379Z,276.80
2018-12-22T21:45:40.915Z,280.77
2018-12-22T21:48:08.439Z,272.47
2018-12-22T21:50:35.997Z,270.00
2018-12-22T21:53:03.503Z,275.10
2018-12-22T21:55:31.307Z,269.33
2018-12-22T21:57:58.839Z,271.10
2018-12-22T22:00:26.360Z,276.50
2018-12-22T22:02:54.157Z,286.20
2018-12-22T22:05:21.678Z,326.30
2018-12-22T22:07:49.509Z,326.93
2018-12-22T22:10:17.027Z,332.93
2018-12-22T22:12:44.539Z,338.00
2018-12-22T22:15:12.386Z,335.07
2018-12-22T22:17:39.910Z,315.03
2018-12-22T22:20:07.418Z,321.87
2018-12-22T22:22:35.182Z,319.17
2018-12-22T22:25:02.699Z,320.03
2018-12-22T22:27:30.216Z,317.30
2018-12-22T22:29:57.788Z,311.50
2018-12-22T22:32:25.322Z,309.87
2018-12-22T22:34:52.840Z,310.77
2018-12-22T22:37:20.513Z,260.40
2018-12-22T22:39:48.046Z,294.03
2018-12-22T22:42:15.580Z,306.37
2018-12-22T22:44:43.128Z,297.63
2018-12-22T22:47:10.663Z,280.67
2018-12-22T22:49:38.175Z,314.03
2018-12-22T22:52:05.978Z,295.47
2018-12-22T22:54:33.519Z,317.23
2018-12-22T22:57:01.171Z,302.30
2018-12-22T22:59:29.046Z,318.63
2018-12-22T23:01:56.557Z,293.40
2018-12-22T23:04:24.998Z,307.37
2018-12-22T23:06:52.547Z,307.60
2018-12-22T23:09:20.051Z,283.17
2018-12-22T23:11:54.081Z,286.90
2018-12-22T23:14:21.679Z,278.50
2018-12-22T23:16:49.328Z,289.20
2018-12-22T23:19:17.197Z,289.20
2018-12-22T23:21:44.720Z,291.00
2018-12-22T23:24:12.713Z,293.33
2018-12-22T23:26:40.241Z,298.50
2018-12-22T23:29:07.761Z,302.80
2018-12-22T23:31:35.312Z,299.10
2018-12-22T23:34:02.819Z,301.33
2018-12-22T23:36:30.327Z,300.80
2018-12-22T23:38:58.203Z,297.47
2018-12-22T23:41:25.725Z,298.40
2018-12-22T23:43:53.258Z,289.57
2018-12-22T23:46:21.150Z,299.33
2018-12-22T23:48:48.673Z,295.33
2018-12-22T23:51:16.179Z,299.50
2018-12-22T23:53:43.728Z,300.47
2018-12-22T23:56:11.244Z,314.57
2018-12-22T23:58:38.842Z,303.13
